Airfield :
LOGIN :

Register | Disclaimer

   EN    FR    IT 

 










Legend :    VFR   Marginal VFR   IFR   Intensive IFR   Very Intensive IFR
Visi :
Ceiling :
>= 8 km
>= 3000ft
5 to 8 km
1000 to 3000 ft
1500m to 5 km
500 to 1000 ft
800 to 1500m
200 to 500 ft
< 800m
< 200 ft
Symbols :   Thunderstorms  Fog  Heavy snow  Heavy precipitations  Wind > 20 kt
SIGMETs :     Misc.  Thunderstorms  Icing  Turbulence  Mountain Waves  Volcanic Ashes






- Airport Elevation : 74 ft
- IATA code : EIN


EHEH - Eindhoven

CURRENT METAR :
  • 071525Z AUTO 21009KT 190V250 9999 BKN280 OVC350 18/09 Q1019 BLU NOSIG

EXPIRED METARs :
  • 071455Z AUTO 21010KT 170V240 9999 BKN290 OVC360 18/08 Q1019 BLU NOSIG
  • 071425Z AUTO 21011KT 9999 FEW039 BKN290 OVC360 19/09 Q1019 BLU NOSIG
  • 071355Z AUTO 21010KT 180V250 9999 FEW039 OVC280 18/09 Q1020 BLU NOSIG
  • 071325Z AUTO 22011KT 9999 OVC280 19/09 Q1020 BLU NOSIG
  • 071255Z AUTO 22012KT 190V250 9999 OVC280 18/09 Q1021 BLU NOSIG

TAF TAF EHEH
Valid from the 07 at 12:00 until the 08 at 18:00 UTC


071138Z 0712/0818 23013KT CAVOK
TEMPO 0802/0805 4500 SHRA RA FEW012 BKN015 SCT020CB
PROB40
TEMPO 0802/0805 4000 RADZ SCT009 BKN012 OVC018
BECMG 0807/0810 28011KT
PROB30
TEMPO 0808/0812 4500 SHRA FEW015 SCT018CB



MET'MAP, your aeronautical weather chart ! - Copyright ORBIFLY December 2007 - Disclaimer

ORBIFLY MET'MAP TEAM :

Programming & Development : Alexandra Zaïnal
Original concept : Baudouin d'Aumeries
Technical & hardware support : Manuel Goepfert
Assistance : Marc-Olivier Méhu




SOURCES & CREDITS :

   NOAA